logo dgac
Miércoles 20 de Marzo del 2019
Buscar por aerodromo o helipuerto
Ingrese nombre de aeródromo, localidad o designador OACI:

Aeródromo: Mocopulli (PUB) (SCPQ)

Ubicación: Dalcahue, X Región, Chile (42º 20' 25'' S, 73º 42' 57'' W) Ver ubicación en el mapa

Pistas

Orientación Dimensión Pendiente Superficie Resistencia APCH THR RWY PAPI
17/35 2000 x 45 m 0,70 ASPH 109 F/D/X/T Sí (3º)
Horas de operación HJ
Elevación 161 m / 528 ft
Otra Información Adm : D.G.A.C
Uso : PUB
Ubicado 6.5 km NW Dalcahue
TEL (065) 2772770 anexo ARO/MET 5206
CEL Jefatura AD 9 1581864

Otra información ver AIP-Chile Volumen I ENR 4.1-5 / AD 3.9-4.1-D

CCCM/FCCV Descargar
andera de Chile
Mapa de Mocopulli (PUB) (SCPQ)

Último METAR

METAR SCPQ 210000Z AUTO 00000KT //// R35///// NCD 10/07 Q1019

Último TAF

TAF SCPQ 201015Z 2012/2024 18005KT CAVOK TN05/2012Z TX15/2019Z BECMG 2013/2015 15010KT

Últimas fotos cámaras

Imagen aerodromo Mocopulli (PUB) (SCPQ) Norte tomada el 20-03-2019 09:38:23 Imagen aerodromo Mocopulli (PUB) (SCPQ) Sur tomada el 20-03-2019 09:37:38

Último NOTAM

C0730/19 NOTAMR C0106/19 Q)SCTZ/QFTLT/I/B/A/000/999/4220S07343W005 A)SCPQ B)1903081511 C)1906082359 E)TRANSMISOMETRO RVR TDZ Y MID RWY 35 U/S DEBIDO WO DATA

LLegadas a Mocopulli (PUB) (SCPQ)

En vuelo

Vuelo Procedencia Hora Despegue Local Hora Arribo Local

Salidas de Mocopulli (PUB) (SCPQ)

En vuelo

Vuelo Hacia Hora Despegue Local Hora Arribo Local